createdAt,value
2023-03-11T00:00:28.755Z,35.93
2023-03-11T00:02:59.826Z,36.73
2023-03-11T00:05:29.175Z,34.13
2023-03-11T00:07:57.487Z,32.87
2023-03-11T00:10:30.249Z,38.40
2023-03-11T00:12:58.535Z,36.90
2023-03-11T00:15:26.985Z,36.13
2023-03-11T00:17:54.893Z,35.90
2023-03-11T00:20:25.370Z,37.80
2023-03-11T00:22:53.889Z,40.90
2023-03-11T00:25:22.877Z,35.40
2023-03-11T00:27:51.901Z,35.40
2023-03-11T00:30:20.333Z,38.00
2023-03-11T00:32:48.666Z,40.40
2023-03-11T00:35:19.368Z,41.30
2023-03-11T00:37:48.404Z,46.37
2023-03-11T00:40:18.190Z,42.43
2023-03-11T00:42:46.312Z,42.70
2023-03-11T00:45:16.499Z,40.47
2023-03-11T00:47:44.568Z,46.53
2023-03-11T00:50:18.764Z,44.13
2023-03-11T00:52:46.933Z,40.97
2023-03-11T00:55:16.307Z,41.33
2023-03-11T00:57:44.218Z,42.60
2023-03-11T01:00:17.267Z,44.30
2023-03-11T01:02:45.528Z,39.13
2023-03-11T01:05:13.762Z,39.63
2023-03-11T01:07:41.578Z,36.80
2023-03-11T01:10:10.966Z,42.33
2023-03-11T01:12:38.794Z,41.07
2023-03-11T01:15:08.854Z,38.80
2023-03-11T01:17:37.907Z,36.87
2023-03-11T01:20:08.944Z,37.57
2023-03-11T01:22:36.668Z,40.43
2023-03-11T01:25:04.739Z,37.77
2023-03-11T01:27:32.439Z,37.77
2023-03-11T01:30:00.120Z,38.17
2023-03-11T01:32:27.973Z,39.97
2023-03-11T01:34:57.072Z,42.50
2023-03-11T01:37:26.984Z,33.97
2023-03-11T01:39:54.916Z,36.20
2023-03-11T01:42:22.526Z,42.03
2023-03-11T01:44:50.394Z,37.70
2023-03-11T01:47:39.756Z,39.00
2023-03-11T01:50:13.075Z,41.37
2023-03-11T01:52:42.789Z,36.80
2023-03-11T01:55:11.177Z,37.93
2023-03-11T01:57:41.677Z,34.90
2023-03-11T02:00:10.951Z,39.87
2023-03-11T02:02:43.447Z,37.47
2023-03-11T02:05:12.956Z,37.47
2023-03-11T02:07:40.914Z,42.07
2023-03-11T02:10:13.508Z,40.70
2023-03-11T02:12:42.538Z,39.47
2023-03-11T02:15:11.807Z,37.43
2023-03-11T02:17:41.535Z,42.00
2023-03-11T02:20:17.758Z,38.70
2023-03-11T02:22:45.728Z,43.73
2023-03-11T02:25:21.962Z,43.73
2023-03-11T02:27:52.788Z,38.80
2023-03-11T02:30:23.882Z,43.30
2023-03-11T02:32:52.186Z,41.23
2023-03-11T02:35:21.022Z,38.17
2023-03-11T02:37:49.869Z,36.30
2023-03-11T02:40:37.160Z,37.60
2023-03-11T02:43:08.367Z,34.50
2023-03-11T02:45:37.055Z,35.57
2023-03-11T02:48:05.365Z,33.13
2023-03-11T02:50:34.757Z,31.03
2023-03-11T02:53:03.208Z,32.37
2023-03-11T02:55:30.998Z,30.97
2023-03-11T02:57:59.081Z,31.43
2023-03-11T03:00:28.337Z,29.70
2023-03-11T03:03:04.204Z,29.53
2023-03-11T03:05:31.919Z,30.13
2023-03-11T03:08:02.701Z,31.63
2023-03-11T03:10:31.363Z,28.53
2023-03-11T03:12:59.305Z,29.33
2023-03-11T03:15:28.741Z,33.00
2023-03-11T03:17:57.082Z,29.00
2023-03-11T03:20:26.440Z,29.40
2023-03-11T03:22:58.344Z,30.40
2023-03-11T03:25:29.220Z,31.70
2023-03-11T03:27:59.445Z,31.53
2023-03-11T03:30:30.045Z,32.73
2023-03-11T03:32:58.645Z,32.90
2023-03-11T03:35:26.548Z,28.43
2023-03-11T03:38:20.359Z,30.93
2023-03-11T03:40:49.931Z,29.93
2023-03-11T03:43:20.972Z,32.10
2023-03-11T03:45:57.950Z,31.47
2023-03-11T03:48:28.220Z,31.23
2023-03-11T03:50:56.689Z,31.53
2023-03-11T03:53:24.618Z,32.77
2023-03-11T03:55:54.436Z,30.80
2023-03-11T03:58:22.114Z,27.07
2023-03-11T04:00:50.406Z,32.70
2023-03-11T04:03:19.685Z,30.30
2023-03-11T04:05:53.278Z,28.17
2023-03-11T04:08:21.402Z,29.30
2023-03-11T04:10:58.131Z,30.50
2023-03-11T04:13:27.412Z,33.67
2023-03-11T04:15:55.814Z,31.60
2023-03-11T04:18:25.616Z,30.90
2023-03-11T04:20:53.897Z,28.17
2023-03-11T04:23:21.682Z,32.23
2023-03-11T04:25:49.644Z,27.83
2023-03-11T04:28:18.291Z,30.13
2023-03-11T04:30:46.392Z,29.30
2023-03-11T04:33:14.241Z,29.33
2023-03-11T04:35:44.402Z,32.83
2023-03-11T04:38:12.518Z,31.80
2023-03-11T04:40:41.020Z,32.87
2023-03-11T04:43:09.443Z,30.13
2023-03-11T04:45:39.232Z,33.40
2023-03-11T04:48:07.486Z,31.30
2023-03-11T04:50:35.925Z,32.27
2023-03-11T04:53:05.351Z,33.10
2023-03-11T04:55:34.145Z,33.47
2023-03-11T04:58:02.127Z,34.07
2023-03-11T05:00:30.725Z,29.90
2023-03-11T05:03:05.743Z,31.47
2023-03-11T05:05:33.958Z,33.43
2023-03-11T05:08:01.695Z,32.47
2023-03-11T05:10:32.673Z,30.47
2023-03-11T05:13:03.540Z,28.57
2023-03-11T05:15:36.476Z,32.40
2023-03-11T05:18:04.485Z,30.90
2023-03-11T05:20:33.314Z,30.13
2023-03-11T05:23:01.084Z,28.80
2023-03-11T05:25:32.522Z,36.00
2023-03-11T05:28:00.577Z,31.47
2023-03-11T05:30:28.725Z,28.73
2023-03-11T05:32:58.392Z,31.47
2023-03-11T05:35:26.409Z,34.83
2023-03-11T05:37:54.886Z,35.93
2023-03-11T05:40:23.852Z,33.13
2023-03-11T05:42:53.199Z,33.90
2023-03-11T05:45:21.120Z,34.03
2023-03-11T05:47:52.651Z,33.33
2023-03-11T05:50:20.965Z,32.60
2023-03-11T05:52:50.198Z,31.07
2023-03-11T05:55:18.367Z,28.37
2023-03-11T05:57:47.283Z,34.87
2023-03-11T06:00:18.911Z,32.10
2023-03-11T06:02:51.232Z,34.50
2023-03-11T06:05:20.192Z,34.20
2023-03-11T06:07:49.953Z,31.87
2023-03-11T06:10:19.455Z,29.50
2023-03-11T06:12:47.427Z,32.17
2023-03-11T06:15:24.942Z,31.23
2023-03-11T06:17:53.950Z,30.83
2023-03-11T06:20:21.942Z,29.83
2023-03-11T06:22:49.744Z,29.17
2023-03-11T06:25:18.069Z,29.20
2023-03-11T06:27:51.408Z,31.93
2023-03-11T06:30:20.111Z,31.70
2023-03-11T06:32:57.466Z,30.73
2023-03-11T06:35:25.639Z,31.40
2023-03-11T06:37:53.809Z,28.03
2023-03-11T06:40:21.546Z,28.20
2023-03-11T06:42:49.530Z,30.67
2023-03-11T06:45:20.722Z,32.00
2023-03-11T06:47:49.734Z,30.73
2023-03-11T06:50:19.201Z,28.20
2023-03-11T06:52:47.438Z,28.03
2023-03-11T06:55:15.171Z,27.20
2023-03-11T06:57:44.683Z,28.70
2023-03-11T07:00:14.301Z,27.53
2023-03-11T07:02:47.109Z,29.53
2023-03-11T07:05:17.375Z,28.33
2023-03-11T07:07:46.622Z,29.57
2023-03-11T07:10:15.365Z,31.87
2023-03-11T07:12:43.349Z,28.00
2023-03-11T07:15:12.075Z,26.03
2023-03-11T07:17:40.538Z,30.67
2023-03-11T07:20:09.731Z,30.30
2023-03-11T07:22:37.388Z,25.10
2023-03-11T07:25:07.240Z,30.90
2023-03-11T07:27:34.932Z,25.00
2023-03-11T07:30:03.045Z,26.40
2023-03-11T07:32:30.730Z,28.93
2023-03-11T07:34:58.556Z,28.03
2023-03-11T07:37:26.502Z,26.23
2023-03-11T07:39:54.472Z,29.97
2023-03-11T07:42:23.536Z,28.07
2023-03-11T07:44:52.536Z,30.67
2023-03-11T07:47:20.142Z,27.13
2023-03-11T07:49:48.015Z,27.57
2023-03-11T07:52:16.006Z,26.77
2023-03-11T07:54:45.109Z,27.97
2023-03-11T07:57:17.026Z,28.57
2023-03-11T07:59:46.456Z,28.70
2023-03-11T08:02:14.147Z,29.53
2023-03-11T08:04:41.862Z,28.53
2023-03-11T08:07:09.490Z,25.57
2023-03-11T08:09:37.186Z,26.77
2023-03-11T08:12:05.377Z,31.10
2023-03-11T08:14:33.128Z,25.70
2023-03-11T08:17:02.175Z,23.03
2023-03-11T08:19:29.974Z,24.40
2023-03-11T08:21:57.599Z,21.80
2023-03-11T08:24:25.376Z,25.30
2023-03-11T08:26:53.217Z,27.53
2023-03-11T08:29:20.914Z,23.43
2023-03-11T08:31:48.995Z,25.07
2023-03-11T08:34:19.429Z,24.30
2023-03-11T08:36:47.344Z,22.47
2023-03-11T08:39:15.120Z,22.73
2023-03-11T08:41:42.825Z,23.87
2023-03-11T08:44:10.582Z,21.60
2023-03-11T08:46:39.903Z,19.37
2023-03-11T08:49:08.694Z,18.20
2023-03-11T08:51:38.709Z,18.87
2023-03-11T08:54:06.621Z,19.30
2023-03-11T08:56:34.327Z,20.30
2023-03-11T08:59:01.945Z,17.47
2023-03-11T09:01:30.305Z,20.67
2023-03-11T09:03:58.038Z,16.20
2023-03-11T09:06:25.805Z,16.80
2023-03-11T09:08:54.845Z,15.33
2023-03-11T09:11:23.000Z,17.33
2023-03-11T09:13:51.323Z,14.57
2023-03-11T09:16:21.568Z,14.63
2023-03-11T09:18:49.522Z,15.37
2023-03-11T09:21:17.630Z,12.67
2023-03-11T09:23:45.349Z,12.30
2023-03-11T09:26:14.583Z,13.53
2023-03-11T09:28:42.968Z,13.67
2023-03-11T09:31:10.827Z,12.20
2023-03-11T09:33:39.449Z,12.23
2023-03-11T09:36:08.884Z,10.68
2023-03-11T09:38:36.596Z,9.33
2023-03-11T09:41:09.749Z,8.50
2023-03-11T09:43:59.228Z,7.72
2023-03-11T09:46:39.088Z,12.80
2023-03-11T09:49:12.689Z,9.40
2023-03-11T09:51:43.917Z,9.57
2023-03-11T09:54:13.016Z,13.38
2023-03-11T09:56:44.454Z,18.30
2023-03-11T09:59:18.269Z,12.85
2023-03-11T10:01:48.280Z,10.40
2023-03-11T10:04:20.125Z,14.32
2023-03-11T10:06:49.246Z,12.40
2023-03-11T10:09:30.230Z,10.13
2023-03-11T10:12:15.355Z,10.23
2023-03-11T10:14:54.299Z,9.40
2023-03-11T10:17:37.767Z,8.30
2023-03-11T10:20:09.863Z,8.15
2023-03-11T10:22:41.308Z,7.80
2023-03-11T10:25:12.772Z,7.35
2023-03-11T10:27:44.492Z,6.72
2023-03-11T10:30:21.736Z,6.40
2023-03-11T10:32:53.492Z,6.88
2023-03-11T10:35:22.745Z,5.65
2023-03-11T10:37:54.793Z,5.68
2023-03-11T10:40:31.157Z,6.03
2023-03-11T10:43:01.947Z,6.88
2023-03-11T10:45:35.816Z,5.30
2023-03-11T10:48:04.088Z,5.43
2023-03-11T10:50:36.600Z,4.47
2023-03-11T10:53:08.100Z,5.65
2023-03-11T10:55:36.215Z,4.95
2023-03-11T10:58:08.497Z,5.50
2023-03-11T11:00:40.659Z,6.90
2023-03-11T11:03:16.205Z,5.55
2023-03-11T11:05:44.277Z,4.82
2023-03-11T11:08:15.149Z,5.10
2023-03-11T11:10:52.359Z,4.82
2023-03-11T11:13:21.581Z,4.30
2023-03-11T11:15:56.657Z,5.15
2023-03-11T11:18:26.170Z,4.85
2023-03-11T11:21:03.804Z,4.10
2023-03-11T11:23:38.583Z,3.65
2023-03-11T11:26:08.935Z,4.13
2023-03-11T11:28:37.394Z,4.38
2023-03-11T11:31:21.063Z,5.68
2023-03-11T11:33:52.049Z,3.90
2023-03-11T11:36:24.110Z,4.85
2023-03-11T11:38:53.791Z,4.03
2023-03-11T11:41:23.439Z,4.00
2023-03-11T11:43:54.168Z,5.75
2023-03-11T11:46:27.040Z,5.28
2023-03-11T11:49:14.824Z,4.15
2023-03-11T11:51:45.297Z,4.88
2023-03-11T11:54:18.055Z,3.78
2023-03-11T11:56:46.622Z,3.20
2023-03-11T11:59:17.631Z,3.35
2023-03-11T12:01:53.570Z,3.78
2023-03-11T12:04:29.256Z,3.20
2023-03-11T12:07:08.534Z,2.90
2023-03-11T12:09:40.049Z,3.10
2023-03-11T12:12:17.869Z,4.28
2023-03-11T12:14:49.379Z,2.75
2023-03-11T12:17:20.318Z,2.80
2023-03-11T12:19:52.291Z,2.92
2023-03-11T12:22:44.740Z,2.58
2023-03-11T12:25:29.849Z,2.17
2023-03-11T12:28:01.002Z,2.78
2023-03-11T12:30:31.490Z,1.95
2023-03-11T12:33:04.638Z,2.08
2023-03-11T12:35:34.241Z,1.83
2023-03-11T12:38:07.856Z,2.25
2023-03-11T12:41:03.947Z,2.30
2023-03-11T12:44:00.351Z,2.15
2023-03-11T12:47:09.679Z,2.60
2023-03-11T12:49:40.342Z,1.70
2023-03-11T12:52:28.596Z,3.20
2023-03-11T12:55:38.463Z,3.13
2023-03-11T12:58:31.212Z,3.13
2023-03-11T13:01:12.437Z,2.05
2023-03-11T13:03:52.881Z,3.97
2023-03-11T13:07:01.645Z,1.65
2023-03-11T13:09:31.428Z,1.70
2023-03-11T13:11:59.311Z,2.33
2023-03-11T13:14:33.609Z,3.42
2023-03-11T13:17:25.971Z,2.28
2023-03-11T13:19:55.878Z,1.65
2023-03-11T13:22:57.058Z,2.00
2023-03-11T13:25:38.198Z,1.85
2023-03-11T13:28:21.207Z,1.70
2023-03-11T13:30:53.717Z,2.70
2023-03-11T13:33:36.611Z,1.75
2023-03-11T13:36:13.121Z,1.88
2023-03-11T13:38:47.985Z,1.90
2023-03-11T13:41:28.464Z,1.42
2023-03-11T13:44:01.206Z,3.03
2023-03-11T13:46:32.374Z,1.63
2023-03-11T13:49:04.377Z,1.60
2023-03-11T13:51:37.542Z,1.55
2023-03-11T13:54:06.495Z,1.85
2023-03-11T13:56:43.573Z,1.75
2023-03-11T13:59:24.512Z,1.77
2023-03-11T14:01:53.315Z,3.95
2023-03-11T14:04:26.053Z,2.10
2023-03-11T14:06:53.988Z,1.67
2023-03-11T14:09:23.405Z,1.83
2023-03-11T14:11:54.195Z,2.10
2023-03-11T14:14:44.666Z,1.60
2023-03-11T14:17:16.031Z,1.73
2023-03-11T14:19:43.682Z,2.83
2023-03-11T14:22:11.511Z,3.13
2023-03-11T14:24:39.624Z,1.70
2023-03-11T14:27:10.922Z,5.00
2023-03-11T14:29:40.365Z,2.17
2023-03-11T14:32:18.874Z,1.70
2023-03-11T14:34:48.352Z,1.77
2023-03-11T14:37:26.488Z,1.80
2023-03-11T14:39:54.347Z,1.67
2023-03-11T14:42:26.593Z,1.88
2023-03-11T14:44:59.074Z,1.92
2023-03-11T14:47:34.638Z,3.95
2023-03-11T14:50:02.707Z,3.28
2023-03-11T14:52:35.386Z,2.92
2023-03-11T14:55:03.598Z,3.55
2023-03-11T14:57:37.748Z,2.60
2023-03-11T15:00:08.744Z,1.85
2023-03-11T15:02:44.732Z,2.83
2023-03-11T15:05:19.602Z,2.22
2023-03-11T15:07:48.104Z,2.15
2023-03-11T15:10:16.174Z,2.10
2023-03-11T15:12:45.753Z,2.25
2023-03-11T15:15:27.459Z,3.95
2023-03-11T15:17:56.369Z,2.15
2023-03-11T15:20:26.237Z,2.53
2023-03-11T15:23:00.658Z,3.00
2023-03-11T15:25:30.338Z,5.15
2023-03-11T15:27:59.518Z,3.20
2023-03-11T15:30:29.376Z,4.70
2023-03-11T15:32:59.226Z,2.20
2023-03-11T15:35:28.037Z,2.28
2023-03-11T15:38:14.357Z,4.95
2023-03-11T15:40:52.764Z,2.00
2023-03-11T15:43:25.283Z,1.80
2023-03-11T15:45:54.458Z,2.22
2023-03-11T15:48:22.884Z,0.90
2023-03-11T15:50:54.328Z,3.72
2023-03-11T15:53:23.569Z,1.00
2023-03-11T15:55:52.454Z,1.15
2023-03-11T15:58:22.149Z,2.30
2023-03-11T16:00:51.284Z,2.05
2023-03-11T16:03:19.937Z,1.63
2023-03-11T16:05:47.862Z,1.58
2023-03-11T16:08:15.765Z,1.85
2023-03-11T16:10:43.894Z,2.42
2023-03-11T16:13:13.510Z,1.88
2023-03-11T16:15:43.537Z,3.03
2023-03-11T16:18:11.883Z,2.03
2023-03-11T16:20:42.097Z,2.80
2023-03-11T16:23:14.113Z,3.47
2023-03-11T16:25:41.933Z,2.65
2023-03-11T16:28:12.323Z,2.47
2023-03-11T16:30:40.072Z,3.42
2023-03-11T16:33:09.294Z,2.42
2023-03-11T16:35:38.036Z,2.42
2023-03-11T16:38:06.034Z,1.92
2023-03-11T16:40:34.154Z,1.58
2023-03-11T16:43:04.434Z,2.00
2023-03-11T16:45:32.844Z,1.60
2023-03-11T16:48:01.064Z,1.98
2023-03-11T16:50:30.537Z,4.43
2023-03-11T16:52:58.825Z,1.80
2023-03-11T16:55:27.819Z,1.70
2023-03-11T16:57:57.338Z,3.10
2023-03-11T17:00:25.713Z,5.90
2023-03-11T17:02:53.446Z,2.53
2023-03-11T17:05:21.480Z,3.53
2023-03-11T17:07:54.091Z,1.70
2023-03-11T17:10:24.417Z,2.15
2023-03-11T17:12:52.167Z,6.28
2023-03-11T17:15:20.089Z,2.53
2023-03-11T17:17:48.040Z,2.22
2023-03-11T17:20:16.538Z,1.70
2023-03-11T17:22:44.198Z,3.00
2023-03-11T17:25:13.386Z,7.15
2023-03-11T17:27:41.120Z,5.95
2023-03-11T17:30:10.566Z,4.53
2023-03-11T17:32:38.383Z,4.15
2023-03-11T17:35:06.912Z,4.15
2023-03-11T17:37:34.906Z,7.25
2023-03-11T17:40:02.611Z,5.10
2023-03-11T17:42:32.019Z,4.03
2023-03-11T17:44:59.775Z,4.32
2023-03-11T17:47:27.446Z,5.93
2023-03-11T17:49:55.274Z,4.78
2023-03-11T17:52:23.144Z,4.72
2023-03-11T17:54:51.969Z,2.80
2023-03-11T17:57:19.751Z,3.88
2023-03-11T17:59:52.730Z,3.28
2023-03-11T18:02:20.889Z,3.63
2023-03-11T18:04:52.551Z,4.43
2023-03-11T18:07:22.901Z,2.72
2023-03-11T18:09:53.783Z,11.00
2023-03-11T18:12:22.660Z,3.22
2023-03-11T18:14:51.652Z,4.25
2023-03-11T18:17:21.046Z,2.70
2023-03-11T18:19:48.727Z,4.03
2023-03-11T18:22:16.415Z,4.78
2023-03-11T18:24:45.519Z,4.57
2023-03-11T18:27:13.301Z,3.58
2023-03-11T18:29:41.090Z,4.18
2023-03-11T18:32:10.366Z,4.53
2023-03-11T18:34:38.532Z,2.60
2023-03-11T18:37:06.358Z,2.60
2023-03-11T18:39:34.631Z,3.63
2023-03-11T18:42:04.441Z,2.20
2023-03-11T18:44:32.559Z,2.28
2023-03-11T18:47:00.234Z,3.88
2023-03-11T18:49:29.872Z,5.22
2023-03-11T18:51:59.233Z,3.90
2023-03-11T18:54:28.414Z,5.80
2023-03-11T18:56:56.048Z,12.07
2023-03-11T18:59:23.741Z,7.43
2023-03-11T19:01:51.454Z,5.67
2023-03-11T19:04:19.070Z,4.83
2023-03-11T19:06:50.003Z,14.50
2023-03-11T19:09:18.738Z,24.33
2023-03-11T19:11:47.065Z,18.70
2023-03-11T19:14:15.883Z,25.93
2023-03-11T19:16:44.190Z,14.30
2023-03-11T19:19:12.247Z,6.63
2023-03-11T19:21:39.946Z,30.40
2023-03-11T19:24:08.986Z,9.60
2023-03-11T19:26:46.631Z,24.67
2023-03-11T19:29:14.830Z,5.50
2023-03-11T19:31:43.361Z,18.07
2023-03-11T19:34:11.072Z,18.33
2023-03-11T19:36:39.153Z,15.47
2023-03-11T19:39:07.213Z,13.97
2023-03-11T19:41:36.272Z,5.63
2023-03-11T19:44:04.098Z,8.73
2023-03-11T19:46:34.449Z,9.07
2023-03-11T19:49:03.134Z,10.73
2023-03-11T19:51:46.535Z,7.77
2023-03-11T19:54:17.226Z,20.63
2023-03-11T19:56:46.380Z,13.33
2023-03-11T19:59:14.097Z,4.23
2023-03-11T20:01:43.030Z,12.00
2023-03-11T20:04:11.081Z,10.97
2023-03-11T20:06:38.847Z,4.53
2023-03-11T20:09:06.955Z,4.60
2023-03-11T20:11:34.628Z,4.33
2023-03-11T20:14:03.715Z,5.87
2023-03-11T20:16:32.466Z,3.37
2023-03-11T20:19:00.174Z,7.30
2023-03-11T20:21:28.178Z,5.20
2023-03-11T20:23:56.512Z,9.20
2023-03-11T20:26:26.573Z,22.20
2023-03-11T20:28:56.427Z,7.53
2023-03-11T20:31:26.866Z,9.80
2023-03-11T20:33:55.490Z,10.63
2023-03-11T20:36:25.535Z,4.57
2023-03-11T20:38:55.090Z,5.70
2023-03-11T20:41:24.057Z,3.77
2023-03-11T20:43:53.074Z,5.50
2023-03-11T20:46:21.051Z,7.17
2023-03-11T20:48:50.201Z,4.00
2023-03-11T20:51:20.410Z,3.50
2023-03-11T20:53:48.782Z,6.37
2023-03-11T20:56:18.648Z,7.07
2023-03-11T20:58:48.678Z,6.30
2023-03-11T21:01:19.160Z,4.70
2023-03-11T21:03:47.769Z,5.83
2023-03-11T21:06:22.723Z,4.83
2023-03-11T21:08:50.871Z,5.50
2023-03-11T21:11:18.560Z,7.10
2023-03-11T21:13:46.250Z,5.13
2023-03-11T21:16:14.257Z,7.93
2023-03-11T21:18:43.277Z,7.13
2023-03-11T21:21:12.084Z,5.43
2023-03-11T21:23:42.157Z,8.50
2023-03-11T21:26:10.414Z,4.47
2023-03-11T21:28:39.915Z,6.40
2023-03-11T21:31:10.599Z,6.60
2023-03-11T21:33:38.944Z,7.43
2023-03-11T21:36:07.825Z,6.33
2023-03-11T21:38:35.685Z,8.77
2023-03-11T21:41:09.959Z,7.90
2023-03-11T21:43:38.339Z,8.00
2023-03-11T21:46:07.456Z,6.67
2023-03-11T21:48:35.520Z,6.80
2023-03-11T21:51:03.732Z,4.77
2023-03-11T21:53:32.088Z,4.93
2023-03-11T21:56:00.141Z,9.57
2023-03-11T21:58:29.293Z,4.77
2023-03-11T22:00:57.410Z,6.80
2023-03-11T22:03:25.796Z,5.17
2023-03-11T22:05:57.882Z,6.87
2023-03-11T22:08:26.008Z,7.37
2023-03-11T22:10:54.783Z,6.53
2023-03-11T22:13:23.253Z,7.13
2023-03-11T22:15:53.096Z,5.53
2023-03-11T22:18:21.155Z,7.67
2023-03-11T22:20:48.945Z,5.27
2023-03-11T22:23:17.650Z,8.93
2023-03-11T22:25:45.431Z,5.97
2023-03-11T22:28:13.566Z,7.03
2023-03-11T22:30:41.375Z,6.13
2023-03-11T22:33:10.921Z,7.07
2023-03-11T22:35:38.687Z,4.67
2023-03-11T22:38:06.693Z,6.30
2023-03-11T22:40:35.091Z,5.27
2023-03-11T22:43:03.065Z,4.10
2023-03-11T22:45:30.747Z,4.17
2023-03-11T22:47:58.486Z,4.17
2023-03-11T22:50:27.726Z,2.87
2023-03-11T22:52:56.010Z,3.13
2023-03-11T22:55:23.675Z,2.70
2023-03-11T22:57:51.958Z,3.90
2023-03-11T23:00:21.819Z,5.90
2023-03-11T23:02:54.926Z,2.90
2023-03-11T23:05:23.646Z,3.00
2023-03-11T23:07:52.672Z,2.93
2023-03-11T23:10:21.350Z,2.83
2023-03-11T23:12:49.984Z,3.23
2023-03-11T23:15:20.458Z,2.50
2023-03-11T23:17:48.276Z,2.87
2023-03-11T23:20:17.044Z,2.80
2023-03-11T23:22:45.165Z,3.43
2023-03-11T23:25:15.920Z,4.33
2023-03-11T23:27:44.601Z,2.87
2023-03-11T23:30:14.680Z,2.70
2023-03-11T23:32:42.640Z,5.80
2023-03-11T23:35:11.279Z,3.80
2023-03-11T23:37:39.253Z,4.60
2023-03-11T23:40:09.349Z,3.47
2023-03-11T23:42:38.864Z,6.87
2023-03-11T23:45:08.161Z,4.20
2023-03-11T23:47:36.258Z,3.60
2023-03-11T23:50:04.238Z,7.93
2023-03-11T23:52:32.024Z,5.77
2023-03-11T23:54:59.748Z,5.87
2023-03-11T23:57:28.088Z,6.30
2023-03-11T23:59:57.108Z,5.07
